createdAt,value
2022-12-31T00:00:20.205Z,99088.56
2022-12-31T00:02:51.930Z,99094.63
2022-12-31T00:05:27.221Z,99098.78
2022-12-31T00:07:57.155Z,99089.41
2022-12-31T00:10:33.311Z,99088.50
2022-12-31T00:13:01.858Z,99091.84
2022-12-31T00:15:30.817Z,99091.81
2022-12-31T00:17:59.339Z,99091.75
2022-12-31T00:20:29.645Z,99080.63
2022-12-31T00:22:59.409Z,99070.38
2022-12-31T00:25:27.801Z,99076.31
2022-12-31T00:27:56.138Z,99078.16
2022-12-31T00:30:24.424Z,99078.97
2022-12-31T00:32:53.750Z,99075.47
2022-12-31T00:35:22.068Z,99072.00
2022-12-31T00:37:52.899Z,99074.59
2022-12-31T00:40:22.708Z,99075.53
2022-12-31T00:42:51.046Z,99076.31
2022-12-31T00:45:19.362Z,99082.25
2022-12-31T00:47:47.943Z,99069.44
2022-12-31T00:50:16.336Z,99079.88
2022-12-31T00:52:44.705Z,99083.25
2022-12-31T00:55:13.051Z,99074.69
2022-12-31T00:57:42.824Z,99079.75
2022-12-31T01:00:12.827Z,99065.97
2022-12-31T01:02:41.366Z,99076.22
2022-12-31T01:05:10.849Z,99059.91
2022-12-31T01:07:39.363Z,99071.78
2022-12-31T01:10:09.106Z,99070.06
2022-12-31T01:12:37.490Z,99071.88
2022-12-31T01:15:08.454Z,99071.81
2022-12-31T01:17:38.075Z,99053.09
2022-12-31T01:20:07.796Z,99074.44
2022-12-31T01:22:36.103Z,99076.78
2022-12-31T01:25:04.638Z,99076.81
2022-12-31T01:27:33.087Z,99068.22
2022-12-31T01:30:01.469Z,99063.16
2022-12-31T01:32:33.505Z,99079.47
2022-12-31T01:35:01.911Z,99084.50
2022-12-31T01:37:31.594Z,99086.09
2022-12-31T01:39:59.929Z,99087.03
2022-12-31T01:42:28.242Z,99084.38
2022-12-31T01:44:57.678Z,99088.59
2022-12-31T01:47:36.476Z,99085.19
2022-12-31T01:50:09.905Z,99080.97
2022-12-31T01:52:41.347Z,99077.28
2022-12-31T01:55:13.728Z,99079.06
2022-12-31T01:57:42.684Z,99076.69
2022-12-31T02:00:19.178Z,99079.97
2022-12-31T02:02:49.077Z,99081.69
2022-12-31T02:05:21.087Z,99084.38
2022-12-31T02:07:49.884Z,99085.31
2022-12-31T02:10:18.662Z,99067.50
2022-12-31T02:12:47.519Z,99061.56
2022-12-31T02:15:15.951Z,99074.16
2022-12-31T02:17:53.357Z,99078.31
2022-12-31T02:20:51.296Z,99076.69
2022-12-31T02:23:41.549Z,99084.38
2022-12-31T02:26:21.554Z,99090.28
2022-12-31T02:29:08.895Z,99078.44
2022-12-31T02:31:40.938Z,99068.44
2022-12-31T02:34:10.950Z,99085.31
2022-12-31T02:36:43.762Z,99086.19
2022-12-31T02:39:12.671Z,99089.56
2022-12-31T02:41:54.005Z,99084.56
2022-12-31T02:44:24.535Z,99092.56
2022-12-31T02:47:01.832Z,99089.69
2022-12-31T02:49:35.261Z,99095.72
2022-12-31T02:52:07.775Z,99091.59
2022-12-31T02:54:44.226Z,99090.69
2022-12-31T02:57:16.927Z,99087.00
2022-12-31T03:00:09.320Z,99106.50
2022-12-31T03:02:43.369Z,99097.25
2022-12-31T03:05:13.382Z,99093.38
2022-12-31T03:07:42.408Z,99081.78
2022-12-31T03:10:11.323Z,99089.50
2022-12-31T03:12:49.068Z,99101.53
2022-12-31T03:15:24.945Z,99099.06
2022-12-31T03:17:59.972Z,99096.22
2022-12-31T03:20:48.880Z,99093.03
2022-12-31T03:23:20.266Z,99093.00
2022-12-31T03:25:47.726Z,99094.00
2022-12-31T03:28:18.843Z,99098.25
2022-12-31T03:30:49.228Z,99099.88
2022-12-31T03:33:21.650Z,99106.56
2022-12-31T03:35:50.713Z,99110.72
2022-12-31T03:38:19.753Z,99103.81
2022-12-31T03:40:50.140Z,99102.91
2022-12-31T03:43:19.408Z,99110.34
2022-12-31T03:45:49.922Z,99119.56
2022-12-31T03:48:20.154Z,99111.16
2022-12-31T03:50:48.452Z,99112.66
2022-12-31T03:53:17.397Z,99118.66
2022-12-31T03:55:46.173Z,99111.06
2022-12-31T03:58:14.474Z,99121.25
2022-12-31T04:00:43.765Z,99112.75
2022-12-31T04:03:12.169Z,99124.50
2022-12-31T04:05:41.991Z,99122.06
2022-12-31T04:08:11.432Z,99128.84
2022-12-31T04:10:39.805Z,99131.44
2022-12-31T04:13:08.668Z,99133.06
2022-12-31T04:15:37.227Z,99135.72
2022-12-31T04:18:05.725Z,99138.28
2022-12-31T04:20:34.532Z,99141.63
2022-12-31T04:23:04.276Z,99148.06
2022-12-31T04:25:32.782Z,99148.06
2022-12-31T04:28:01.136Z,99149.78
2022-12-31T04:30:29.513Z,99161.03
2022-12-31T04:32:57.874Z,99155.47
2022-12-31T04:35:27.327Z,99163.91
2022-12-31T04:37:55.633Z,99163.94
2022-12-31T04:40:26.779Z,99169.84
2022-12-31T04:42:55.142Z,99177.34
2022-12-31T04:45:23.474Z,99170.50
2022-12-31T04:47:51.770Z,99178.88
2022-12-31T04:50:20.067Z,99182.22
2022-12-31T04:52:50.840Z,99186.41
2022-12-31T04:55:19.315Z,99193.47
2022-12-31T04:57:50.051Z,99196.13
2022-12-31T05:00:19.839Z,99199.59
2022-12-31T05:02:48.652Z,99209.84
2022-12-31T05:05:17.799Z,99207.31
2022-12-31T05:07:46.101Z,99210.72
2022-12-31T05:10:14.988Z,99218.47
2022-12-31T05:12:43.345Z,99222.78
2022-12-31T05:15:13.025Z,99231.38
2022-12-31T05:17:41.367Z,99234.88
2022-12-31T05:20:10.397Z,99217.75
2022-12-31T05:22:38.800Z,99241.75
2022-12-31T05:25:07.895Z,99246.00
2022-12-31T05:27:37.948Z,99248.53
2022-12-31T05:30:08.570Z,99254.44
2022-12-31T05:32:38.280Z,99255.47
2022-12-31T05:35:07.751Z,99259.75
2022-12-31T05:37:36.077Z,99263.97
2022-12-31T05:40:05.242Z,99264.78
2022-12-31T05:42:34.081Z,99270.75
2022-12-31T05:45:02.419Z,99264.69
2022-12-31T05:47:33.399Z,99268.28
2022-12-31T05:50:03.105Z,99267.44
2022-12-31T05:52:31.682Z,99278.53
2022-12-31T05:55:00.290Z,99285.44
2022-12-31T05:57:28.785Z,99288.75
2022-12-31T05:59:57.139Z,99292.97
2022-12-31T06:02:25.757Z,99302.44
2022-12-31T06:04:54.117Z,99304.09
2022-12-31T06:07:23.815Z,99295.50
2022-12-31T06:09:52.696Z,99308.50
2022-12-31T06:12:21.006Z,99306.75
2022-12-31T06:14:49.325Z,99318.81
2022-12-31T06:17:17.736Z,99317.19
2022-12-31T06:19:46.078Z,99323.94
2022-12-31T06:22:14.415Z,99331.50
2022-12-31T06:24:44.211Z,99344.28
2022-12-31T06:27:12.554Z,99349.50
2022-12-31T06:29:40.907Z,99353.72
2022-12-31T06:32:09.220Z,99359.03
2022-12-31T06:34:37.631Z,99365.00
2022-12-31T06:37:05.992Z,99370.06
2022-12-31T06:39:34.321Z,99387.97
2022-12-31T06:42:06.791Z,99379.53
2022-12-31T06:44:35.536Z,99380.38
2022-12-31T06:47:03.917Z,99395.84
2022-12-31T06:49:32.311Z,99406.78
2022-12-31T06:52:00.764Z,99405.94
2022-12-31T06:54:29.085Z,99416.19
2022-12-31T06:56:58.054Z,99412.94
2022-12-31T06:59:30.456Z,99416.41
2022-12-31T07:02:12.185Z,99415.38
2022-12-31T07:04:59.168Z,99418.13
2022-12-31T07:07:31.977Z,99398.31
2022-12-31T07:10:05.267Z,99419.81
2022-12-31T07:12:45.341Z,99421.56
2022-12-31T07:15:19.070Z,99424.97
2022-12-31T07:17:56.476Z,99424.00
2022-12-31T07:20:25.392Z,58019.84
2022-12-31T07:22:54.527Z,58019.84
2022-12-31T07:25:24.689Z,58019.84
2022-12-31T07:28:06.631Z,58019.84
2022-12-31T07:30:42.411Z,58019.84
2022-12-31T07:33:23.919Z,58019.84
2022-12-31T07:35:59.345Z,58019.84
2022-12-31T07:38:32.764Z,58019.84
2022-12-31T07:41:09.944Z,58019.84
2022-12-31T07:43:48.627Z,58019.84
2022-12-31T07:46:22.370Z,58019.84
2022-12-31T07:48:51.355Z,58019.84
2022-12-31T07:51:20.281Z,58019.84
2022-12-31T07:53:48.768Z,58019.84
2022-12-31T07:56:17.159Z,58019.84
2022-12-31T07:58:55.000Z,58019.84
2022-12-31T08:01:32.750Z,58019.84
2022-12-31T08:04:04.355Z,58019.84
2022-12-31T08:06:40.738Z,58019.84
2022-12-31T08:09:14.345Z,58019.84
2022-12-31T08:11:48.166Z,58019.84
2022-12-31T08:14:16.844Z,58019.84
2022-12-31T08:16:47.037Z,58019.84
2022-12-31T08:19:24.453Z,58019.84
2022-12-31T08:22:04.404Z,58019.84
2022-12-31T08:24:39.099Z,58019.84
2022-12-31T08:27:10.271Z,58019.84
2022-12-31T08:29:44.799Z,58019.84
2022-12-31T08:32:20.185Z,58019.84
2022-12-31T08:34:54.515Z,58019.84
2022-12-31T08:37:28.940Z,58019.84
2022-12-31T08:40:05.813Z,58019.84
2022-12-31T08:42:38.492Z,58019.84
2022-12-31T08:45:13.929Z,58019.84
2022-12-31T08:47:47.836Z,58019.84
2022-12-31T08:50:17.537Z,58019.84
2022-12-31T08:52:46.760Z,58019.84
2022-12-31T08:55:17.439Z,58019.84
2022-12-31T08:57:54.841Z,58019.84
2022-12-31T09:00:24.094Z,58019.84
2022-12-31T09:03:03.041Z,58019.84
2022-12-31T09:05:34.523Z,58019.84
2022-12-31T09:08:11.215Z,58019.84
2022-12-31T09:10:45.400Z,58019.84
2022-12-31T09:13:18.353Z,58019.84
2022-12-31T09:15:50.965Z,58019.84
2022-12-31T09:18:21.351Z,58019.84
2022-12-31T09:20:50.021Z,58019.84
2022-12-31T09:23:18.780Z,58019.84
2022-12-31T09:25:55.690Z,58019.84
2022-12-31T09:28:35.903Z,58019.84
2022-12-31T09:31:10.582Z,58019.84
2022-12-31T09:33:51.417Z,58019.84
2022-12-31T09:36:23.554Z,58019.84
2022-12-31T09:38:54.444Z,58019.84
2022-12-31T09:41:44.212Z,58019.84
2022-12-31T09:44:54.043Z,58019.84
2022-12-31T09:47:59.675Z,58019.84
2022-12-31T09:50:52.887Z,58019.84
2022-12-31T09:53:50.590Z,58019.84
2022-12-31T09:56:23.038Z,58019.84
2022-12-31T09:59:00.081Z,58019.84
2022-12-31T10:01:37.747Z,58019.84
2022-12-31T10:04:26.214Z,58019.84
2022-12-31T10:07:08.986Z,58019.84
2022-12-31T10:09:51.466Z,58019.84
2022-12-31T10:12:41.662Z,58019.84
2022-12-31T10:15:48.506Z,58019.84
2022-12-31T10:18:31.170Z,58019.84
2022-12-31T10:21:12.130Z,58019.84
2022-12-31T10:28:33.132Z,99596.09
2022-12-31T10:31:12.238Z,99597.81
2022-12-31T10:33:45.114Z,99603.22
2022-12-31T10:36:21.170Z,99599.88
2022-12-31T10:39:00.803Z,99594.00
2022-12-31T10:42:12.173Z,99595.97
2022-12-31T10:45:16.969Z,99592.66
2022-12-31T10:48:13.974Z,99599.53
2022-12-31T10:51:21.030Z,99609.44
2022-12-31T10:54:30.351Z,99618.97
2022-12-31T10:57:34.002Z,99619.56
2022-12-31T11:00:14.036Z,99639.09
2022-12-31T11:03:12.459Z,99637.28
2022-12-31T11:06:23.088Z,99646.75
2022-12-31T11:09:29.954Z,99644.28
2022-12-31T11:12:08.215Z,99643.63
2022-12-31T11:14:57.597Z,99663.06
2022-12-31T11:17:33.687Z,99669.72
2022-12-31T11:20:16.729Z,99658.84
2022-12-31T11:22:55.708Z,99669.78
2022-12-31T11:25:40.298Z,99664.31
2022-12-31T11:28:18.178Z,99672.03
2022-12-31T11:30:57.302Z,99675.38
2022-12-31T11:33:31.239Z,99677.94
2022-12-31T11:36:11.080Z,99693.34
2022-12-31T11:38:46.131Z,99695.03
2022-12-31T11:41:20.273Z,99715.25
2022-12-31T11:43:53.827Z,99710.94
2022-12-31T11:46:45.271Z,99708.28
2022-12-31T11:49:34.123Z,99703.22
2022-12-31T11:52:29.351Z,99705.81
2022-12-31T11:55:11.452Z,99704.69
2022-12-31T11:57:42.806Z,99710.81
2022-12-31T12:00:19.353Z,99709.97
2022-12-31T12:02:49.377Z,99710.94
2022-12-31T12:05:21.285Z,99713.50
2022-12-31T12:07:50.343Z,99708.41
2022-12-31T12:10:29.150Z,99708.38
2022-12-31T12:13:11.504Z,99716.72
2022-12-31T12:15:49.990Z,99717.63
2022-12-31T12:18:31.203Z,99724.41
2022-12-31T12:21:06.545Z,99732.03
2022-12-31T12:23:34.948Z,99732.69
2022-12-31T12:26:04.952Z,99729.88
2022-12-31T12:28:44.485Z,99730.47
2022-12-31T12:31:20.976Z,99731.34
2022-12-31T12:33:50.718Z,99736.31
2022-12-31T12:36:21.200Z,99725.22
2022-12-31T12:38:49.653Z,99739.66
2022-12-31T12:41:26.560Z,99735.19
2022-12-31T12:44:04.374Z,99735.38
2022-12-31T12:46:36.647Z,99728.53
2022-12-31T12:49:05.480Z,99720.81
2022-12-31T12:51:46.714Z,99731.34
2022-12-31T12:54:26.118Z,99725.00
2022-12-31T12:57:01.066Z,99733.88
2022-12-31T13:00:08.591Z,99723.41
2022-12-31T13:03:22.217Z,99723.50
2022-12-31T13:06:02.570Z,99726.78
2022-12-31T13:08:44.677Z,99733.75
2022-12-31T13:11:26.062Z,99728.44
2022-12-31T13:14:05.227Z,99734.59
2022-12-31T13:16:38.862Z,99732.19
2022-12-31T13:19:13.678Z,99742.22
2022-12-31T13:21:48.917Z,99734.41
2022-12-31T13:24:25.373Z,99732.81
2022-12-31T13:26:57.096Z,99732.78
2022-12-31T13:29:30.030Z,99704.56
2022-12-31T13:32:01.339Z,99723.59
2022-12-31T13:34:35.084Z,99709.06
2022-12-31T13:37:08.416Z,99710.84
2022-12-31T13:39:40.484Z,99729.88
2022-12-31T13:42:13.125Z,99728.53
2022-12-31T13:44:46.371Z,99732.84
2022-12-31T13:47:18.705Z,99744.81
2022-12-31T13:49:50.438Z,99741.34
2022-12-31T13:52:26.282Z,99744.72
2022-12-31T13:54:57.787Z,99731.56
2022-12-31T13:57:38.016Z,99738.47
2022-12-31T14:00:19.287Z,99722.19
2022-12-31T14:02:53.912Z,99737.69
2022-12-31T14:05:27.633Z,99733.66
2022-12-31T14:07:57.329Z,99738.78
2022-12-31T14:10:33.079Z,99738.22
2022-12-31T14:13:08.321Z,99733.56
2022-12-31T14:15:42.712Z,99706.03
2022-12-31T14:18:16.243Z,99726.94
2022-12-31T14:20:49.031Z,99705.31
2022-12-31T14:23:24.756Z,99711.59
2022-12-31T14:25:57.536Z,99715.97
2022-12-31T14:28:30.748Z,99718.31
2022-12-31T14:31:11.934Z,99724.38
2022-12-31T14:33:46.151Z,99729.56
2022-12-31T14:36:22.630Z,99730.13
2022-12-31T14:38:59.657Z,99722.47
2022-12-31T14:41:38.242Z,99725.03
2022-12-31T14:44:19.879Z,99723.22
2022-12-31T14:47:01.219Z,99730.94
2022-12-31T14:49:40.553Z,99728.34
2022-12-31T14:52:15.788Z,99730.78
2022-12-31T14:54:45.887Z,99729.25
2022-12-31T14:57:28.770Z,99739.78
2022-12-31T14:59:58.510Z,99743.53
2022-12-31T15:02:34.103Z,99746.75
2022-12-31T15:05:19.341Z,99747.84
2022-12-31T15:07:50.515Z,99748.75
2022-12-31T15:10:27.865Z,99737.50
2022-12-31T15:13:03.916Z,99741.78
2022-12-31T15:15:57.803Z,99728.88
2022-12-31T15:18:42.038Z,99740.03
2022-12-31T15:21:36.537Z,99741.25
2022-12-31T15:24:13.926Z,99745.22
2022-12-31T15:26:50.169Z,99741.88
2022-12-31T15:29:30.586Z,99735.66
2022-12-31T15:32:04.525Z,99747.59
2022-12-31T15:34:36.350Z,99734.63
2022-12-31T15:37:06.671Z,99724.59
2022-12-31T15:39:44.232Z,99726.34
2022-12-31T15:42:39.240Z,99718.66
2022-12-31T15:45:15.000Z,99723.66
2022-12-31T15:47:46.936Z,99723.75
2022-12-31T15:50:20.320Z,99718.47
2022-12-31T15:52:52.866Z,99727.06
2022-12-31T15:55:26.924Z,99726.94
2022-12-31T15:57:55.944Z,99731.22
2022-12-31T16:00:25.286Z,99714.91
2022-12-31T16:02:55.400Z,99728.88
2022-12-31T16:05:26.829Z,99729.84
2022-12-31T16:07:56.288Z,99715.78
2022-12-31T16:10:27.592Z,99721.72
2022-12-31T16:12:56.900Z,99736.59
2022-12-31T16:15:27.972Z,99729.53
2022-12-31T16:18:01.346Z,99733.63
2022-12-31T16:20:33.762Z,99739.47
2022-12-31T16:23:04.516Z,99736.00
2022-12-31T16:25:34.375Z,99732.69
2022-12-31T16:28:04.031Z,99726.03
2022-12-31T16:30:33.229Z,99714.63
2022-12-31T16:33:05.329Z,99720.72
2022-12-31T16:35:37.321Z,99715.44
2022-12-31T16:38:13.842Z,99708.69
2022-12-31T16:40:43.868Z,99718.13
2022-12-31T16:43:27.446Z,99708.00
2022-12-31T16:45:58.889Z,99712.25
2022-12-31T16:48:27.822Z,99701.84
2022-12-31T16:50:58.669Z,99697.28
2022-12-31T16:53:30.123Z,99701.69
2022-12-31T16:56:03.380Z,99698.22
2022-12-31T16:58:33.415Z,99699.75
2022-12-31T17:01:13.717Z,99698.69
2022-12-31T17:03:45.038Z,99709.13
2022-12-31T17:06:16.817Z,99704.13
2022-12-31T17:08:47.016Z,99697.25
2022-12-31T17:11:23.511Z,99700.78
2022-12-31T17:13:57.609Z,99699.13
2022-12-31T17:16:26.752Z,99704.22
2022-12-31T17:18:55.317Z,99688.28
2022-12-31T17:21:27.352Z,99681.28
2022-12-31T17:23:58.354Z,99678.66
2022-12-31T17:26:28.619Z,99673.75
2022-12-31T17:28:58.364Z,99662.47
2022-12-31T17:31:29.973Z,99659.09
2022-12-31T17:34:08.102Z,99647.47
2022-12-31T17:36:38.028Z,99654.00
2022-12-31T17:39:17.919Z,99652.63
2022-12-31T17:41:47.237Z,99653.16
2022-12-31T17:44:19.680Z,99653.91
2022-12-31T17:46:48.878Z,99654.41
2022-12-31T17:49:17.549Z,99635.31
2022-12-31T17:51:47.851Z,99637.44
2022-12-31T17:54:17.453Z,99637.25
2022-12-31T17:56:46.031Z,99643.16
2022-12-31T17:59:17.368Z,99643.25
2022-12-31T18:01:46.148Z,99642.25
2022-12-31T18:04:15.867Z,99636.28
2022-12-31T18:06:44.303Z,99634.50
2022-12-31T18:09:17.133Z,99635.41
2022-12-31T18:11:45.582Z,99637.06
2022-12-31T18:14:15.483Z,99629.94
2022-12-31T18:16:44.543Z,99627.34
2022-12-31T18:19:37.966Z,99622.38
2022-12-31T18:22:03.800Z,99613.94
2022-12-31T18:24:33.841Z,99607.84
2022-12-31T18:27:02.264Z,99605.94
2022-12-31T18:29:30.645Z,99608.47
2022-12-31T18:31:59.193Z,99623.78
2022-12-31T18:34:27.616Z,99602.63
2022-12-31T18:36:55.994Z,99603.72
2022-12-31T18:39:24.356Z,99610.69
2022-12-31T18:41:54.147Z,99609.03
2022-12-31T18:44:22.550Z,99607.31
2022-12-31T18:46:50.953Z,99595.38
2022-12-31T18:49:19.308Z,99591.38
2022-12-31T18:51:49.733Z,99575.19
2022-12-31T18:54:18.113Z,99582.88
2022-12-31T18:56:49.294Z,99586.09
2022-12-31T18:59:21.095Z,99588.91
2022-12-31T19:01:49.633Z,99586.28
2022-12-31T19:04:26.983Z,99583.84
2022-12-31T19:06:56.150Z,99579.72
2022-12-31T19:09:44.732Z,99574.63
2022-12-31T19:12:13.511Z,99579.19
2022-12-31T19:14:43.271Z,99563.31
2022-12-31T19:17:11.683Z,99552.34
2022-12-31T19:19:40.064Z,99545.38
2022-12-31T19:22:10.116Z,99555.44
2022-12-31T19:24:38.517Z,99548.63
2022-12-31T19:27:06.881Z,99548.06
2022-12-31T19:29:35.310Z,99546.16
2022-12-31T19:32:05.743Z,99547.78
2022-12-31T19:34:34.204Z,99543.50
2022-12-31T19:37:02.555Z,99531.53
2022-12-31T19:39:31.301Z,99523.88
2022-12-31T19:41:59.967Z,99530.75
2022-12-31T19:44:28.409Z,99518.69
2022-12-31T19:46:56.813Z,99522.94
2022-12-31T19:49:26.610Z,99530.03
2022-12-31T19:51:54.915Z,99526.66
2022-12-31T19:54:23.255Z,99529.19
2022-12-31T19:56:51.578Z,99523.09
2022-12-31T19:59:19.945Z,99538.72
2022-12-31T20:01:48.429Z,99531.03
2022-12-31T20:04:18.295Z,99529.44
2022-12-31T20:06:48.065Z,99528.88
2022-12-31T20:09:16.602Z,99525.22
2022-12-31T20:11:44.968Z,99526.44
2022-12-31T20:14:13.394Z,99523.66
2022-12-31T20:16:41.848Z,99528.09
2022-12-31T20:19:10.890Z,99526.94
2022-12-31T20:21:39.289Z,99521.88
2022-12-31T20:24:09.593Z,99515.94
2022-12-31T20:26:37.936Z,99501.31
2022-12-31T20:29:06.343Z,99487.69
2022-12-31T20:31:34.681Z,99482.38
2022-12-31T20:34:03.110Z,99482.41
2022-12-31T20:36:31.454Z,99469.69
2022-12-31T20:39:00.163Z,99459.38
2022-12-31T20:41:32.167Z,99452.72
2022-12-31T20:44:00.995Z,99442.38
2022-12-31T20:46:30.955Z,99441.56
2022-12-31T20:49:01.404Z,99422.00
2022-12-31T20:51:30.997Z,99409.28
2022-12-31T20:54:01.283Z,99401.38
2022-12-31T20:56:32.333Z,99407.56
2022-12-31T20:59:00.717Z,99412.53
2022-12-31T21:01:41.839Z,99410.28
2022-12-31T21:04:18.261Z,99408.44
2022-12-31T21:06:48.055Z,99400.72
2022-12-31T21:09:16.376Z,99409.03
2022-12-31T21:12:03.675Z,99421.91
2022-12-31T21:14:32.186Z,99408.25
2022-12-31T21:17:00.527Z,99410.16
2022-12-31T21:19:28.981Z,99404.47
2022-12-31T21:21:57.394Z,99410.19
2022-12-31T21:24:26.283Z,99406.53
2022-12-31T21:26:57.462Z,99416.03
2022-12-31T21:29:27.838Z,99404.06
2022-12-31T21:31:59.939Z,99403.13
2022-12-31T21:34:28.292Z,99410.19
2022-12-31T21:36:56.959Z,99396.28
2022-12-31T21:39:25.291Z,99402.53
2022-12-31T21:41:53.829Z,99407.72
2022-12-31T21:44:25.273Z,99413.72
2022-12-31T21:49:46.378Z,99389.13
2022-12-31T21:52:27.316Z,99383.22
2022-12-31T21:55:13.504Z,99376.22
2022-12-31T21:58:15.438Z,99376.38
2022-12-31T22:00:51.122Z,99366.88
2022-12-31T22:03:27.606Z,99366.75
2022-12-31T22:05:58.344Z,99365.34
2022-12-31T22:08:26.926Z,99360.75
2022-12-31T22:10:55.401Z,99353.22
2022-12-31T22:13:24.365Z,99342.88
2022-12-31T22:16:00.430Z,99334.28
2022-12-31T22:18:34.553Z,99341.06
2022-12-31T22:21:04.247Z,99339.25
2022-12-31T22:23:34.051Z,99333.28
2022-12-31T22:26:03.086Z,99335.94
2022-12-31T22:28:40.182Z,99342.88
2022-12-31T22:31:11.325Z,99334.28
2022-12-31T22:33:40.333Z,99342.19
2022-12-31T22:36:12.024Z,99334.34
2022-12-31T22:38:40.578Z,99322.44
2022-12-31T22:41:11.567Z,99325.19
2022-12-31T22:43:41.525Z,99313.88
2022-12-31T22:46:13.173Z,99310.78
2022-12-31T22:48:42.272Z,99305.53
2022-12-31T22:51:11.721Z,99308.22
2022-12-31T22:53:41.434Z,99314.22
2022-12-31T22:56:10.461Z,99289.47
2022-12-31T22:58:39.152Z,99298.94
2022-12-31T23:01:08.506Z,99309.16
2022-12-31T23:03:38.797Z,99307.44
2022-12-31T23:06:07.269Z,99299.31
2022-12-31T23:08:36.699Z,99284.78
2022-12-31T23:11:06.100Z,99278.00
2022-12-31T23:13:57.485Z,99269.47
2022-12-31T23:16:45.247Z,99258.28
2022-12-31T23:19:33.412Z,99260.72
2022-12-31T23:22:19.022Z,99257.66
2022-12-31T23:24:47.383Z,99261.91
2022-12-31T23:27:15.874Z,99252.81
2022-12-31T23:29:47.550Z,99266.19
2022-12-31T23:32:16.448Z,99251.50
2022-12-31T23:34:47.982Z,99250.63
2022-12-31T23:37:16.803Z,99243.06
2022-12-31T23:39:45.207Z,99245.38
2022-12-31T23:42:13.559Z,99250.00
2022-12-31T23:44:41.906Z,99247.44
2022-12-31T23:47:11.006Z,99246.41
2022-12-31T23:49:39.496Z,99237.72
2022-12-31T23:52:09.423Z,99232.69
2022-12-31T23:54:38.026Z,99231.88
2022-12-31T23:57:06.429Z,99239.00
2022-12-31T23:59:35.373Z,99242.97
